Time;durP1;ratioP1;P1;durP2;ratioP2;P2;SDS_P1;SDS_P2;PMS_P1;PMS_P2;Temp;Humidity;BMP_temperature;BMP_pressure;BME280_temperature;BME280_humidity;BME280_pressure;Samples;Min_cycle;Max_cycle;Signal;HPM_P1;HPM_P2
2021/12/23 00:02:02;;;;;;;81.00;56.03;;;;;;;-3.71;95.68;101933.44;5005347;28;20041;-87
2021/12/23 00:04:31;;;;;;;79.13;57.10;;;;;;;-3.96;96.02;101918.78;4993560;28;20034;-87
2021/12/23 00:06:56;;;;;;;91.80;59.80;;;;;;;-3.99;96.65;101922.03;4987307;28;20018;-87
2021/12/23 00:09:28;;;;;;;84.00;58.57;;;;;;;-3.92;96.93;101906.44;4986947;28;20188;-85
2021/12/23 00:11:53;;;;;;;91.85;58.00;;;;;;;-4.11;96.61;101887.06;5004312;28;20048;-87
2021/12/23 00:14:18;;;;;;;80.20;59.57;;;;;;;-4.03;96.79;101905.91;4994452;28;20033;-87
2021/12/23 00:16:49;;;;;;;86.73;59.03;;;;;;;-3.94;96.93;101899.63;5004114;28;20032;-87
2021/12/23 00:19:35;;;;;;;88.20;59.92;;;;;;;-4.04;96.95;101889.13;4987780;28;20026;-86
2021/12/23 00:24:47;;;;;;;82.65;55.42;;;;;;;-3.97;96.46;101884.41;5023666;28;20396;-86
2021/12/23 00:27:16;;;;;;;67.78;54.53;;;;;;;-4.10;96.20;101877.91;5004346;28;20018;-87
2021/12/23 00:29:41;;;;;;;80.47;57.25;;;;;;;-3.97;96.47;101866.81;4987561;28;20069;-88
2021/12/23 00:32:08;;;;;;;73.00;57.53;;;;;;;-4.01;95.94;101868.28;4999326;28;20034;-87
2021/12/23 00:34:38;;;;;;;87.25;58.42;;;;;;;-4.07;95.55;101827.75;4985340;28;20264;-86
2021/12/23 00:37:06;;;;;;;78.05;57.13;;;;;;;-3.89;95.87;101843.75;5001991;28;20038;-84
2021/12/23 00:39:32;;;;;;;71.22;56.40;;;;;;;-3.87;95.72;101847.19;5007378;28;20087;-86
2021/12/23 00:42:05;;;;;;;75.60;57.77;;;;;;;-3.87;95.33;101836.28;5010375;28;20637;-86
2021/12/23 00:44:31;;;;;;;78.65;56.47;;;;;;;-3.90;95.48;101828.59;5011223;28;20326;-85
2021/12/23 00:46:56;;;;;;;76.33;56.70;;;;;;;-3.95;95.36;101827.50;5015307;28;20515;-86
2021/12/23 00:49:22;;;;;;;81.43;57.57;;;;;;;-3.90;95.35;101831.94;4998134;28;20014;-86
2021/12/23 00:51:47;;;;;;;81.20;56.97;;;;;;;-3.95;95.76;101830.03;5026675;28;20037;-88
2021/12/23 00:54:12;;;;;;;86.17;58.47;;;;;;;-3.98;96.00;101823.19;5012408;28;20064;-86
2021/12/23 00:56:41;;;;;;;84.20;58.20;;;;;;;-4.01;95.82;101812.97;5016430;28;20030;-85
2021/12/23 00:59:10;;;;;;;80.70;59.15;;;;;;;-4.04;95.65;101807.81;5017166;28;20085;-85
2021/12/23 01:01:35;;;;;;;81.78;58.53;;;;;;;-4.14;95.94;101805.66;5000803;28;20029;-85
2021/12/23 01:04:01;;;;;;;83.60;57.80;;;;;;;-4.16;95.91;101799.69;5013954;28;20031;-86
2021/12/23 01:06:26;;;;;;;80.10;57.60;;;;;;;-3.96;96.15;101796.50;5002416;28;20037;-87
2021/12/23 01:08:52;;;;;;;74.53;56.50;;;;;;;-3.85;95.64;101787.81;4997231;28;20090;-86
2021/12/23 01:11:17;;;;;;;69.13;54.63;;;;;;;-3.88;94.93;101787.66;5007600;28;20041;-86
2021/12/23 01:13:58;;;;;;;75.07;54.67;;;;;;;-3.80;94.96;101774.56;4997898;28;20030;-86
2021/12/23 01:16:47;;;;;;;70.38;56.33;;;;;;;-3.92;95.02;101778.22;5000405;28;20396;-87
2021/12/23 01:19:24;;;;;;;65.38;54.22;;;;;;;-3.79;94.71;101771.28;5002067;28;20365;-85
2021/12/23 01:21:49;;;;;;;71.32;55.58;;;;;;;-3.87;94.41;101771.75;4986020;28;20033;-86
2021/12/23 01:24:15;;;;;;;70.53;55.30;;;;;;;-3.84;95.10;101781.97;5006485;28;20038;-85
2021/12/23 01:26:41;;;;;;;65.60;54.20;;;;;;;-3.90;94.56;101771.63;5014098;28;20041;-86
2021/12/23 01:29:06;;;;;;;70.18;55.75;;;;;;;-3.89;94.08;101775.00;5020159;28;20283;-85
2021/12/23 01:31:34;;;;;;;68.95;56.50;;;;;;;-3.96;94.89;101801.53;5018076;28;20064;-85
2021/12/23 01:33:59;;;;;;;73.80;56.03;;;;;;;-4.05;94.85;101801.94;5017329;28;20029;-85
2021/12/23 01:36:25;;;;;;;71.43;56.10;;;;;;;-3.93;95.06;101809.22;5000131;28;20081;-87
2021/12/23 01:38:51;;;;;;;69.47;56.25;;;;;;;-3.92;94.73;101787.44;4989133;28;20023;-85
2021/12/23 01:41:16;;;;;;;68.10;52.83;;;;;;;-3.93;94.74;101771.50;5008032;28;20037;-87
2021/12/23 01:43:42;;;;;;;68.40;54.10;;;;;;;-3.77;94.18;101783.16;5008424;28;20018;-86
2021/12/23 01:46:10;;;;;;;66.73;54.10;;;;;;;-3.87;94.05;101780.97;5007126;28;20283;-85
2021/12/23 01:48:42;;;;;;;69.20;55.15;;;;;;;-3.70;93.62;101787.66;5010137;28;20033;-86
2021/12/23 01:51:07;;;;;;;75.13;53.67;;;;;;;-3.66;93.58;101792.03;5006339;28;20031;-86
2021/12/23 01:53:33;;;;;;;69.40;54.83;;;;;;;-3.81;93.29;101781.25;5006308;28;20036;-86
2021/12/23 01:56:02;;;;;;;67.10;53.97;;;;;;;-3.74;93.29;101777.38;4987845;28;20447;-86
2021/12/23 01:58:28;;;;;;;62.03;51.60;;;;;;;-3.79;93.40;101768.75;4988426;28;20504;-86
2021/12/23 02:00:53;;;;;;;61.47;53.23;;;;;;;-3.66;93.53;101756.84;4994531;28;20022;-86
2021/12/23 02:03:19;;;;;;;61.53;51.20;;;;;;;-3.80;92.95;101739.38;4986711;28;20041;-85
2021/12/23 02:05:45;;;;;;;58.40;52.15;;;;;;;-3.78;93.17;101745.34;5006720;28;20510;-86
2021/12/23 02:08:10;;;;;;;75.07;55.60;;;;;;;-3.86;93.34;101745.84;5007003;28;20113;-87
2021/12/23 02:10:36;;;;;;;65.78;55.78;;;;;;;-3.86;93.78;101733.28;5006179;28;20052;-84
2021/12/23 02:13:02;;;;;;;60.67;54.07;;;;;;;-3.76;93.28;101733.69;5007530;28;20117;-85
2021/12/23 02:15:27;;;;;;;62.63;53.53;;;;;;;-3.77;93.45;101717.78;4999337;28;20042;-86
2021/12/23 02:17:53;;;;;;;60.33;53.60;;;;;;;-3.64;93.32;101726.72;4987964;28;20026;-86
2021/12/23 02:20:25;;;;;;;67.10;55.65;;;;;;;-3.76;92.75;101731.19;4986940;28;20049;-85
2021/12/23 02:22:51;;;;;;;72.47;53.45;;;;;;;-3.94;93.56;101727.03;5003847;28;20061;-86
2021/12/23 02:25:17;;;;;;;66.22;53.38;;;;;;;-3.85;93.17;101724.97;4988728;28;20030;-86
2021/12/23 02:27:43;;;;;;;;;;;;;;;-3.93;93.83;101726.25;4997989;28;20025;-84
2021/12/23 02:30:13;;;;;;;69.55;54.90;;;;;;;-4.13;93.86;101697.66;5007943;28;19956;-85
2021/12/23 02:32:39;;;;;;;66.95;53.38;;;;;;;-4.05;94.38;101705.56;5009619;28;20085;-84
2021/12/23 02:35:05;;;;;;;60.63;53.38;;;;;;;-3.96;93.64;101705.13;4995727;28;20018;-86
2021/12/23 02:37:34;;;;;;;72.90;53.65;;;;;;;-3.76;93.55;101711.06;4987912;28;20555;-85
2021/12/23 02:39:59;;;;;;;64.40;53.45;;;;;;;-3.76;93.24;101698.50;5006014;28;20022;-85
2021/12/23 02:42:28;;;;;;;64.33;53.97;;;;;;;-3.68;93.04;101672.03;5009030;28;20061;-86
2021/12/23 02:44:53;;;;;;;62.53;53.53;;;;;;;-3.77;92.93;101682.56;5002292;28;20030;-87
2021/12/23 02:47:22;;;;;;;59.00;51.53;;;;;;;-3.78;93.25;101669.94;5006448;28;20057;-86
2021/12/23 02:49:48;;;;;;;59.13;52.78;;;;;;;-3.74;92.89;101684.34;4989623;28;20038;-87
2021/12/23 02:52:15;;;;;;;68.40;53.33;;;;;;;-3.75;93.16;101667.56;4991225;28;20462;-85
2021/12/23 02:54:40;;;;;;;61.50;52.13;;;;;;;-3.69;93.08;101670.31;4993523;28;20022;-86
2021/12/23 02:57:06;;;;;;;71.60;55.73;;;;;;;-3.77;93.33;101676.66;4993209;28;20090;-86
2021/12/23 02:59:32;;;;;;;63.35;53.28;;;;;;;-3.73;92.88;101676.00;4993435;28;20026;-87
2021/12/23 03:01:57;;;;;;;62.43;55.57;;;;;;;-3.69;92.68;101666.16;5009656;28;20037;-85
2021/12/23 03:04:25;;;;;;;64.77;53.70;;;;;;;-3.66;92.78;101665.41;5010020;28;20021;-86
2021/12/23 03:06:55;;;;;;;60.80;53.88;;;;;;;-3.79;93.06;101664.00;5002616;28;20011;-84
2021/12/23 03:09:21;;;;;;;60.42;53.75;;;;;;;-3.76;93.00;101664.16;5014906;28;20028;-85
2021/12/23 03:11:46;;;;;;;63.23;53.57;;;;;;;-3.93;93.39;101642.41;5020704;28;20026;-84
2021/12/23 03:14:13;;;;;;;60.37;53.77;;;;;;;-3.87;93.68;101625.97;5020517;28;20028;-84
2021/12/23 03:16:39;;;;;;;69.63;54.03;;;;;;;-3.75;93.96;101645.78;5017567;28;20069;-83
2021/12/23 03:19:06;;;;;;;58.63;52.37;;;;;;;-3.89;93.92;101632.56;5001231;28;20037;-83
2021/12/23 03:21:31;;;;;;;63.22;53.78;;;;;;;-3.73;93.50;101634.13;5004936;28;20019;-83
2021/12/23 03:23:57;;;;;;;69.47;57.05;;;;;;;-3.89;93.40;101607.44;5001520;28;20022;-85
2021/12/23 03:26:24;;;;;;;73.57;55.22;;;;;;;-3.83;93.27;101596.81;5018331;28;20022;-82
2021/12/23 03:28:49;;;;;;;66.07;53.53;;;;;;;-3.56;92.72;101616.38;5001353;28;20645;-84
2021/12/23 03:31:15;;;;;;;60.00;50.53;;;;;;;-3.62;93.03;101606.94;5015892;23;20038;-85
2021/12/23 03:33:41;;;;;;;66.23;53.77;;;;;;;-3.59;92.82;101601.19;4999554;28;20152;-85
2021/12/23 03:36:06;;;;;;;70.07;54.58;;;;;;;-3.72;92.74;101594.75;4964331;28;20042;-85
2021/12/23 03:38:31;;;;;;;59.63;52.63;;;;;;;-3.60;92.70;101580.19;4996653;28;20023;-85
2021/12/23 03:40:57;;;;;;;62.77;53.70;;;;;;;-3.75;92.56;101590.47;4961178;28;20106;-86
2021/12/23 03:43:22;;;;;;;61.70;54.87;;;;;;;-3.81;92.85;101585.16;4968182;28;20117;-85
2021/12/23 03:45:48;;;;;;;65.70;51.90;;;;;;;-3.75;93.32;101579.56;4982538;28;20026;-85
2021/12/23 03:48:15;;;;;;;70.32;55.35;;;;;;;-3.76;92.96;101577.81;4971725;28;20385;-84
2021/12/23 03:50:41;;;;;;;67.45;56.00;;;;;;;-3.79;92.94;101563.44;4955241;28;20031;-85
2021/12/23 03:53:07;;;;;;;75.63;55.35;;;;;;;-3.60;92.97;101580.19;4976307;28;20062;-85
2021/12/23 03:55:32;;;;;;;66.37;55.90;;;;;;;-3.70;93.08;101573.06;4978328;28;20035;-84
2021/12/23 03:57:58;;;;;;;69.77;55.33;;;;;;;-3.77;93.19;101566.91;4976396;28;20518;-84
2021/12/23 04:00:24;;;;;;;59.93;52.83;;;;;;;-3.65;93.69;101561.53;4976304;28;20448;-84
2021/12/23 04:02:50;;;;;;;60.38;52.80;;;;;;;-3.58;93.34;101558.50;4974366;28;20057;-85
2021/12/23 04:05:16;;;;;;;63.75;52.45;;;;;;;-3.65;93.35;101551.47;4974744;28;20031;-85
2021/12/23 04:07:42;;;;;;;62.67;53.08;;;;;;;-3.44;93.11;101543.13;4997392;28;20030;-83
2021/12/23 04:10:11;;;;;;;71.13;54.28;;;;;;;-3.61;93.19;101533.22;4997751;28;20054;-83
2021/12/23 04:12:37;;;;;;;62.13;52.83;;;;;;;-3.63;92.21;101542.34;4995902;28;20058;-84
2021/12/23 04:15:03;;;;;;;70.07;55.05;;;;;;;-3.76;93.20;101535.94;4975546;28;20045;-85
2021/12/23 04:17:28;;;;;;;62.10;52.60;;;;;;;-3.69;93.45;101534.53;4978919;28;20025;-85
2021/12/23 04:19:59;;;;;;;63.77;54.10;;;;;;;-3.73;93.67;101518.47;4976245;28;20056;-84
2021/12/23 04:22:25;;;;;;;60.13;52.90;;;;;;;-3.73;93.62;101512.59;4965480;28;20468;-85
2021/12/23 04:24:52;;;;;;;75.80;54.97;;;;;;;-3.58;93.04;101512.34;4963717;28;20023;-85
2021/12/23 04:27:17;;;;;;;69.45;54.10;;;;;;;-3.73;93.44;101522.63;4965269;28;20030;-84
2021/12/23 04:29:42;;;;;;;62.17;51.80;;;;;;;-3.68;93.51;101508.59;4965431;28;20033;-84
2021/12/23 04:32:08;;;;;;;62.93;53.93;;;;;;;-3.66;93.19;101514.53;4987076;28;20157;-83
2021/12/23 04:34:33;;;;;;;64.07;53.40;;;;;;;-3.58;92.88;101509.84;4969345;28;20512;-85
2021/12/23 04:36:58;;;;;;;59.93;53.40;;;;;;;-3.64;93.11;101510.47;4947823;28;20038;-85
2021/12/23 04:39:24;;;;;;;66.93;55.00;;;;;;;-3.69;93.17;101504.34;4962659;28;20051;-85
2021/12/23 04:41:49;;;;;;;64.60;55.53;;;;;;;-3.67;93.29;101502.78;4953393;28;20042;-85
2021/12/23 04:44:14;;;;;;;64.40;54.20;;;;;;;-3.62;93.32;101506.34;4946866;28;20067;-85
2021/12/23 04:46:40;;;;;;;65.50;54.00;;;;;;;-3.64;93.72;101505.44;4973192;28;20292;-86
2021/12/23 04:49:05;;;;;;;71.93;55.30;;;;;;;-3.65;93.56;101498.66;4977879;28;20484;-85
2021/12/23 04:51:30;;;;;;;66.43;54.90;;;;;;;-3.72;93.80;101492.53;4970751;28;20034;-84
2021/12/23 04:53:56;;;;;;;58.27;52.10;;;;;;;-3.60;93.85;101481.25;4971378;28;20011;-85
2021/12/23 04:56:21;;;;;;;66.53;52.23;;;;;;;-3.51;93.85;101459.84;5004283;28;20031;-85
2021/12/23 04:58:46;;;;;;;70.00;55.77;;;;;;;-3.58;93.44;101473.00;4973390;28;20114;-85
2021/12/23 05:01:28;;;;;;;64.63;51.37;;;;;;;-3.43;93.02;101469.38;4970888;28;20030;-85
2021/12/23 05:03:53;;;;;;;63.33;53.28;;;;;;;-3.47;92.91;101453.28;4966624;28;20094;-85
2021/12/23 05:06:19;;;;;;;76.47;56.20;;;;;;;-3.43;92.90;101456.81;4959097;28;20061;-84
2021/12/23 05:08:44;;;;;;;70.33;54.37;;;;;;;-3.49;93.34;101448.19;4962122;28;20078;-85
2021/12/23 05:11:16;;;;;;;60.90;52.90;;;;;;;-3.46;92.73;101434.88;4976835;28;20022;-83
2021/12/23 05:13:48;;;;;;;57.58;51.22;;;;;;;-3.32;92.53;101441.31;4970796;23;20060;-84
2021/12/23 05:16:25;;;;;;;64.07;53.38;;;;;;;-3.38;92.39;101441.06;5068494;22;20030;-84
2021/12/23 05:18:56;;;;;;;59.75;51.60;;;;;;;-3.39;92.65;101419.22;5018837;28;20006;-85
2021/12/23 05:21:30;;;;;;;76.57;56.03;;;;;;;-3.33;92.46;101414.44;5206437;22;20325;-84
2021/12/23 05:23:56;;;;;;;69.43;54.20;;;;;;;-3.50;92.34;101386.13;5001718;28;20052;-85
2021/12/23 05:26:26;;;;;;;63.33;55.13;;;;;;;-3.49;92.18;101395.38;5223086;23;20030;-82
2021/12/23 05:28:57;;;;;;;63.55;53.38;;;;;;;-3.35;92.03;101390.88;5256412;23;20015;-83
2021/12/23 05:31:23;;;;;;;63.33;53.22;;;;;;;-3.45;92.64;101376.25;5001632;28;20046;-85
2021/12/23 05:33:49;;;;;;;63.03;53.87;;;;;;;-3.34;92.27;101377.50;4978466;28;20031;-85
2021/12/23 05:36:14;;;;;;;59.30;52.80;;;;;;;-3.25;91.92;101368.59;4975144;28;20021;-86
2021/12/23 05:38:43;;;;;;;59.90;53.43;;;;;;;-3.44;91.75;101359.50;4981103;28;20038;-84
2021/12/23 05:41:11;;;;;;;61.58;54.00;;;;;;;-3.40;91.82;101363.84;4978310;28;20008;-83
2021/12/23 05:43:37;;;;;;;63.13;54.22;;;;;;;-3.49;92.49;101350.09;4958627;28;20135;-85
2021/12/23 05:46:05;;;;;;;66.90;55.47;;;;;;;-3.52;92.17;101337.41;4952137;28;20033;-82
2021/12/23 05:48:43;;;;;;;74.15;56.83;;;;;;;-3.22;92.01;101336.84;5004595;23;20101;-81
2021/12/23 05:53:44;;;;;;;58.33;51.28;;;;;;;-3.32;92.00;101332.28;5122782;23;20262;-84
2021/12/23 05:56:09;;;;;;;62.33;52.40;;;;;;;-3.43;91.99;101326.00;4961420;28;20047;-85
2021/12/23 05:58:35;;;;;;;56.93;50.77;;;;;;;-3.41;92.16;101294.19;4949602;29;20107;-84
2021/12/23 06:01:00;;;;;;;61.50;54.93;;;;;;;-3.47;92.41;101310.78;4949799;29;20035;-84
2021/12/23 06:03:26;;;;;;;71.37;54.57;;;;;;;-3.49;92.54;101311.50;4953625;29;20022;-83
2021/12/23 06:05:54;;;;;;;60.33;52.83;;;;;;;-3.31;92.73;101321.41;4951176;29;20520;-84
2021/12/23 06:08:20;;;;;;;66.65;54.13;;;;;;;-3.53;92.57;101279.50;4947448;29;20042;-84
2021/12/23 06:10:48;;;;;;;68.43;57.50;;;;;;;-3.40;93.18;101311.03;4952288;29;20059;-84
2021/12/23 06:13:13;;;;;;;71.60;54.10;;;;;;;-3.41;92.85;101287.50;4954594;29;20031;-84
2021/12/23 06:15:39;;;;;;;60.17;52.13;;;;;;;-3.34;92.75;101255.88;4952101;29;20035;-85
2021/12/23 06:18:04;;;;;;;64.60;55.37;;;;;;;-3.32;91.64;101227.47;4948984;29;20047;-84
2021/12/23 06:20:32;;;;;;;65.60;53.60;;;;;;;-3.35;91.89;101255.03;4951837;29;20019;-85
2021/12/23 06:22:57;;;;;;;71.47;58.63;;;;;;;-3.31;92.50;101256.00;4949467;29;20025;-85
2021/12/23 06:25:23;;;;;;;69.87;54.57;;;;;;;-3.36;92.23;101242.41;4951062;29;20055;-84
2021/12/23 06:27:48;;;;;;;60.70;54.40;;;;;;;-3.42;92.28;101222.03;4970125;29;20031;-85
2021/12/23 06:30:21;;;;;;;58.60;52.67;;;;;;;-3.42;92.25;101227.06;4949116;29;20024;-85
2021/12/23 06:32:49;;;;;;;62.92;53.50;;;;;;;-3.30;92.51;101233.41;4948627;29;20031;-85
2021/12/23 06:35:17;;;;;;;68.32;54.85;;;;;;;-3.50;92.36;101200.00;4950112;29;20055;-83
2021/12/23 06:37:43;;;;;;;60.90;54.33;;;;;;;-3.56;92.65;101206.44;4951492;29;20118;-84
2021/12/23 06:40:09;;;;;;;61.95;53.40;;;;;;;-3.62;92.35;101163.50;4952376;29;20028;-85
2021/12/23 06:42:35;;;;;;;64.53;55.03;;;;;;;-3.14;92.33;101249.06;4943470;28;20044;-82
2021/12/23 06:45:00;;;;;;;61.35;54.65;;;;;;;-3.21;92.20;101235.41;4952610;28;20284;-84
2021/12/23 06:47:25;;;;;;;61.20;54.70;;;;;;;-3.26;91.98;101234.41;4951514;29;20035;-85
2021/12/23 06:49:51;;;;;;;66.83;54.40;;;;;;;-3.21;92.25;101237.94;4951093;29;20023;-85
2021/12/23 06:52:16;;;;;;;63.97;55.20;;;;;;;-3.11;92.11;101239.09;4951328;28;20019;-85
2021/12/23 06:54:52;;;;;;;60.03;53.70;;;;;;;-3.21;92.22;101230.38;4950037;28;20019;-83
2021/12/23 07:00:01;;;;;;;59.67;53.28;;;;;;;-3.24;92.49;101204.25;5500453;23;20042;-84
2021/12/23 07:02:27;;;;;;;65.00;54.72;;;;;;;-3.48;92.47;101153.13;4946476;28;20035;-83
2021/12/23 07:04:52;;;;;;;66.43;53.80;;;;;;;-3.47;92.46;101159.88;4961788;28;20031;-85
2021/12/23 07:07:29;;;;;;;70.83;55.77;;;;;;;-3.35;92.67;101163.63;4955015;29;20042;-86
2021/12/23 07:09:55;;;;;;;64.20;54.72;;;;;;;-3.32;92.43;101148.63;4956536;29;20035;-85
2021/12/23 07:12:22;;;;;;;68.10;54.28;;;;;;;-3.14;92.23;101161.81;4958229;29;20047;-84
2021/12/23 07:14:47;;;;;;;;;;;;;;;-3.23;92.13;101169.09;4959865;29;20095;-85
2021/12/23 07:17:12;;;;;;;61.58;52.33;;;;;;;-3.28;92.15;101160.50;4961161;28;19922;-85
2021/12/23 07:19:38;;;;;;;60.10;53.50;;;;;;;-3.24;92.32;101162.34;4956851;28;20049;-84
2021/12/23 07:22:06;;;;;;;58.20;52.00;;;;;;;-3.16;92.21;101150.00;4954043;29;20035;-85
2021/12/23 07:24:34;;;;;;;63.38;54.05;;;;;;;-2.94;91.90;101181.81;4951588;28;20063;-86
2021/12/23 07:27:00;;;;;;;66.95;55.55;;;;;;;-3.13;92.08;101161.03;4948860;29;20027;-86
2021/12/23 07:29:25;;;;;;;59.22;53.08;;;;;;;-3.00;91.86;101177.41;4948101;29;20490;-86
2021/12/23 07:31:50;;;;;;;64.83;55.33;;;;;;;-2.97;92.13;101201.84;4964230;28;20050;-85
2021/12/23 07:34:16;;;;;;;60.33;53.47;;;;;;;-3.23;91.93;101173.25;4964241;28;20030;-86
2021/12/23 07:36:41;;;;;;;63.63;54.50;;;;;;;-2.99;91.78;101208.47;4950886;28;20050;-86
2021/12/23 07:39:07;;;;;;;62.60;53.63;;;;;;;-3.43;92.36;101130.66;4950011;29;20050;-87
2021/12/23 07:41:33;;;;;;;59.08;53.00;;;;;;;-3.10;91.81;101208.97;4949084;29;20027;-85
2021/12/23 07:44:05;;;;;;;68.82;55.97;;;;;;;-2.94;91.82;101190.19;4956147;29;20087;-85
2021/12/23 07:46:34;;;;;;;66.68;55.03;;;;;;;-3.18;91.92;101191.88;4958756;28;20078;-85
2021/12/23 07:49:00;;;;;;;69.43;55.75;;;;;;;-3.43;92.17;101182.63;4961123;29;20023;-85
2021/12/23 07:51:26;;;;;;;59.03;52.90;;;;;;;-3.33;92.73;101202.25;4961626;28;20098;-84
2021/12/23 07:53:53;;;;;;;62.63;54.35;;;;;;;-3.10;92.42;101206.44;4962238;28;20066;-85
2021/12/23 07:56:22;;;;;;;65.43;55.03;;;;;;;-3.00;92.56;101217.69;4962811;28;20027;-85
2021/12/23 07:58:48;;;;;;;72.75;57.95;;;;;;;-2.97;92.43;101234.56;4953364;29;20027;-85
2021/12/23 08:01:13;;;;;;;62.97;55.80;;;;;;;-3.01;92.44;101210.06;4971600;28;20019;-84
2021/12/23 08:03:41;;;;;;;61.57;54.47;;;;;;;-2.76;92.10;101227.72;4957056;28;20055;-86
2021/12/23 08:06:07;;;;;;;69.82;56.50;;;;;;;-3.13;92.46;101220.59;4954306;28;20268;-84
2021/12/23 08:08:32;;;;;;;70.57;56.87;;;;;;;-3.12;92.86;101213.09;4974602;28;20022;-83
2021/12/23 08:11:02;;;;;;;66.70;56.50;;;;;;;-2.91;92.13;101229.75;5029940;23;20088;-85
2021/12/23 08:13:28;;;;;;;68.32;56.88;;;;;;;-2.87;92.45;101215.59;4939776;28;20019;-84
2021/12/23 08:16:00;;;;;;;65.83;55.57;;;;;;;-2.77;92.17;101205.88;4940303;28;20126;-83
2021/12/23 08:18:29;;;;;;;61.38;54.50;;;;;;;-2.77;91.97;101205.00;4941189;28;20016;-82
2021/12/23 08:20:55;;;;;;;63.33;56.47;;;;;;;-2.76;92.22;101205.06;4950283;28;20012;-84
2021/12/23 08:23:20;;;;;;;67.70;56.00;;;;;;;-2.77;92.02;101195.81;4943161;28;20028;-83
2021/12/23 08:25:46;;;;;;;60.97;54.43;;;;;;;-2.80;92.05;101185.63;4942780;28;20413;-82
2021/12/23 08:28:11;;;;;;;67.20;56.00;;;;;;;-2.72;92.12;101179.97;4958267;28;20070;-82
2021/12/23 08:30:39;;;;;;;60.50;54.23;;;;;;;-2.65;91.62;101184.44;4939912;28;20026;-82
2021/12/23 08:33:05;;;;;;;64.18;55.45;;;;;;;-2.54;90.93;101183.09;4943836;28;20008;-82
2021/12/23 08:35:30;;;;;;;60.00;53.63;;;;;;;-2.58;90.70;101174.59;4943570;28;20027;-83
2021/12/23 08:37:55;;;;;;;69.83;56.10;;;;;;;-2.55;91.23;101166.28;4941318;28;20020;-81
2021/12/23 08:40:29;;;;;;;60.60;53.90;;;;;;;-2.71;91.17;101154.00;4924633;28;20016;-81
2021/12/23 08:42:59;;;;;;;59.30;53.08;;;;;;;-2.57;91.19;101148.59;4934079;28;20084;-81
2021/12/23 08:45:28;;;;;;;60.35;53.78;;;;;;;-2.69;91.18;101142.31;4944688;28;20023;-82
2021/12/23 08:47:55;;;;;;;63.60;55.30;;;;;;;-2.71;90.89;101123.78;4940189;28;20017;-83
2021/12/23 08:50:27;;;;;;;68.80;57.60;;;;;;;-2.61;91.18;101161.03;4941139;28;20043;-83
2021/12/23 08:52:53;;;;;;;64.68;54.95;;;;;;;-3.01;91.49;101114.44;4942929;28;20078;-82
2021/12/23 08:55:23;;;;;;;72.57;57.73;;;;;;;-2.80;92.01;101135.28;4943267;28;20024;-82
2021/12/23 08:57:48;;;;;;;70.10;55.50;;;;;;;-2.63;91.70;101148.38;4940315;28;20024;-83
2021/12/23 09:00:16;;;;;;;69.20;55.83;;;;;;;-2.80;91.38;101112.63;4941549;28;20023;-82
2021/12/23 09:02:42;;;;;;;61.83;55.05;;;;;;;-2.60;91.09;101107.34;4942197;28;20035;-83
2021/12/23 09:05:08;;;;;;;63.22;54.97;;;;;;;-2.35;90.33;101133.28;4938218;28;20020;-83
2021/12/23 09:07:36;;;;;;;61.05;54.75;;;;;;;-2.52;90.67;101105.91;4945609;28;20077;-83
2021/12/23 09:10:06;;;;;;;61.60;54.95;;;;;;;-2.29;90.69;101136.88;4945770;28;20016;-84
2021/12/23 09:12:32;;;;;;;62.75;55.92;;;;;;;-2.64;90.40;101081.22;4939213;28;20066;-84
2021/12/23 09:15:03;;;;;;;63.60;56.63;;;;;;;-2.32;90.35;101124.16;4940632;28;20016;-82
2021/12/23 09:17:38;;;;;;;61.95;55.35;;;;;;;-2.44;90.40;101114.56;4942610;28;20290;-83
2021/12/23 09:20:10;;;;;;;68.15;57.08;;;;;;;-2.51;90.87;101101.72;4941786;28;20035;-83
2021/12/23 09:22:38;;;;;;;60.97;54.50;;;;;;;-2.48;90.84;101096.78;4957698;28;20016;-84
2021/12/23 09:25:24;;;;;;;69.68;57.85;;;;;;;-2.46;90.65;101068.31;4941897;28;20039;-84
2021/12/23 09:28:22;;;;;;;63.15;56.33;;;;;;;-2.20;90.45;101103.50;4941445;28;20054;-84
2021/12/23 09:34:02;;;;;;;67.25;56.40;;;;;;;-2.19;90.45;101087.59;4987722;23;20108;-86
2021/12/23 09:36:27;;;;;;;67.47;56.50;;;;;;;-2.17;90.08;101060.75;4959323;29;20121;-87
2021/12/23 09:38:56;;;;;;;72.43;59.50;;;;;;;-2.16;89.93;101095.25;4949162;29;20039;-86
2021/12/23 09:41:23;;;;;;;61.40;54.72;;;;;;;-2.20;90.04;101070.75;4947011;29;20059;-84
2021/12/23 09:43:49;;;;;;;62.28;55.47;;;;;;;-2.22;90.34;101079.94;4936734;29;20031;-84
2021/12/23 09:46:17;;;;;;;;;;;;;;;-2.09;90.17;101083.66;4949154;29;20397;-86
2021/12/23 09:48:44;;;;;;;63.08;55.50;;;;;;;-2.11;89.72;101068.50;4932932;29;19911;-87
2021/12/23 09:51:11;;;;;;;69.32;55.42;;;;;;;-2.04;89.59;101074.56;4953408;29;20305;-88
2021/12/23 09:53:40;;;;;;;67.15;56.90;;;;;;;-2.08;89.39;101040.84;4953926;29;20103;-86
2021/12/23 09:56:13;;;;;;;62.55;55.70;;;;;;;-2.03;89.71;101062.00;4953574;29;20066;-87
2021/12/23 09:58:38;;;;;;;61.08;54.15;;;;;;;-2.13;89.52;101029.78;4955138;29;20051;-87
2021/12/23 10:01:04;;;;;;;67.67;55.70;;;;;;;-2.20;89.66;101027.91;4952748;29;20042;-86
2021/12/23 10:03:31;;;;;;;64.93;55.97;;;;;;;-2.01;89.98;101027.59;4968377;28;20028;-86
2021/12/23 10:05:59;;;;;;;65.03;56.15;;;;;;;-2.10;89.89;101004.69;4951531;29;20055;-88
2021/12/23 10:08:25;;;;;;;65.45;54.40;;;;;;;-1.71;88.78;100996.44;4951929;29;20030;-86
2021/12/23 10:11:03;;;;;;;;;;;;;;;-1.90;88.96;100992.59;4950259;29;20057;-88
2021/12/23 10:38:35;;;;;;;61.40;53.95;;;;;;;-1.69;88.81;100898.97;4967206;29;19933;-87
2021/12/23 10:41:07;;;;;;;63.30;55.53;;;;;;;-1.67;88.25;100879.69;4951369;28;20041;-87
2021/12/23 10:43:45;;;;;;;66.65;56.03;;;;;;;-1.78;89.06;100871.03;4954320;29;20082;-86
2021/12/23 10:46:22;;;;;;;65.35;55.85;;;;;;;-1.81;89.41;100906.25;4959992;29;20058;-87
2021/12/23 10:52:06;;;;;;;70.15;57.58;;;;;;;-1.89;90.12;100890.09;4975690;29;20077;-85
2021/12/23 11:00:31;;;;;;;68.88;57.60;;;;;;;-1.75;89.33;100882.84;4975616;28;20038;-85
2021/12/23 11:03:15;;;;;;;64.70;55.90;;;;;;;-1.63;89.18;100874.72;4957768;29;20070;-86
2021/12/23 11:05:54;;;;;;;63.38;55.80;;;;;;;-1.53;89.17;100881.66;4967907;29;20033;-88
2021/12/23 11:08:33;;;;;;;70.78;57.47;;;;;;;-1.67;88.90;100874.66;4940161;29;20241;-87
2021/12/23 11:42:17;;;;;;;61.05;54.67;;;;;;;-1.21;86.57;100826.00;4967019;28;20038;-86
2021/12/23 11:44:43;;;;;;;65.05;56.35;;;;;;;-1.14;86.79;100815.25;4953969;29;20037;-86
2021/12/23 11:47:13;;;;;;;61.55;54.42;;;;;;;-1.17;86.37;100810.13;4953075;29;20059;-87
2021/12/23 11:49:40;;;;;;;62.15;55.63;;;;;;;-1.20;86.41;100803.31;4946869;29;20034;-86
2021/12/23 11:52:06;;;;;;;65.20;55.85;;;;;;;-1.04;86.35;100807.00;4949030;28;20027;-88
2021/12/23 11:54:37;;;;;;;68.43;57.47;;;;;;;-1.12;nan;100788.34;4957994;28;20103;-86
2021/12/23 11:57:19;;;;;;;64.07;56.25;;;;;;;-0.97;86.69;100806.34;4946088;28;20045;-86
2021/12/23 12:00:03;;;;;;;65.05;56.22;;;;;;;-1.00;86.65;100803.75;4962005;28;20023;-85
2021/12/23 12:02:32;;;;;;;67.97;56.65;;;;;;;-0.93;85.64;100790.41;4960848;28;20011;-86
2021/12/23 12:05:00;;;;;;;62.28;55.47;;;;;;;-0.95;86.26;100789.53;4961466;28;20122;-87
2021/12/23 12:07:26;;;;;;;62.90;56.05;;;;;;;-0.97;85.96;100781.09;4959035;28;20122;-87
2021/12/23 12:10:03;;;;;;;65.53;56.43;;;;;;;-0.99;85.87;100759.13;4955744;29;20060;-87
2021/12/23 12:12:29;;;;;;;63.10;54.85;;;;;;;-0.96;86.04;100765.09;4971962;28;20048;-87
2021/12/23 12:14:55;;;;;;;64.03;54.85;;;;;;;-1.08;86.47;100749.72;4954640;29;20043;-87
2021/12/23 12:17:24;;;;;;;69.03;56.55;;;;;;;-0.92;85.96;100756.75;4941193;29;20417;-85
2021/12/23 12:19:55;;;;;;;69.90;57.17;;;;;;;-1.08;86.48;100739.63;4955268;29;20028;-86
2021/12/23 12:22:58;;;;;;;63.10;56.15;;;;;;;-0.96;86.50;100744.88;4954553;28;20093;-86
2021/12/23 12:25:26;;;;;;;61.67;55.15;;;;;;;-0.90;86.25;100743.31;4950725;28;20106;-88
2021/12/23 12:27:57;;;;;;;72.38;56.33;;;;;;;-0.94;85.91;100727.25;4970776;28;20027;-89
2021/12/23 12:30:51;;;;;;;65.47;54.40;;;;;;;-0.92;85.84;100726.47;4964104;29;20048;-87